createdAt,value
2018-04-08T00:00:48.273Z,14.33
2018-04-08T00:03:15.848Z,15.83
2018-04-08T00:05:43.520Z,14.97
2018-04-08T00:08:11.071Z,14.37
2018-04-08T00:10:38.582Z,14.97
2018-04-08T00:13:06.193Z,17.10
2018-04-08T00:15:33.718Z,11.40
2018-04-08T00:18:02.019Z,17.47
2018-04-08T00:20:29.575Z,13.50
2018-04-08T00:22:57.107Z,17.37
2018-04-08T00:25:25.416Z,19.93
2018-04-08T00:27:52.977Z,16.53
2018-04-08T00:30:20.497Z,12.77
2018-04-08T00:32:48.792Z,15.90
2018-04-08T00:35:16.350Z,11.83
2018-04-08T00:37:43.864Z,16.37
2018-04-08T00:40:11.393Z,17.87
2018-04-08T00:42:38.954Z,11.30
2018-04-08T00:45:06.472Z,18.83
2018-04-08T00:47:34.082Z,13.97
2018-04-08T00:50:01.631Z,12.90
2018-04-08T00:52:29.146Z,11.87
2018-04-08T00:54:56.672Z,15.00
2018-04-08T00:57:24.297Z,11.70
2018-04-08T00:59:51.866Z,13.27
2018-04-08T01:02:19.402Z,11.47
2018-04-08T01:04:46.970Z,13.60
2018-04-08T01:07:14.480Z,15.80
2018-04-08T01:09:42.799Z,12.57
2018-04-08T01:12:10.359Z,11.00
2018-04-08T01:14:37.915Z,16.20
2018-04-08T01:17:05.436Z,13.70
2018-04-08T01:19:32.978Z,16.13
2018-04-08T01:22:00.498Z,20.57
2018-04-08T01:24:28.026Z,15.10
2018-04-08T01:26:56.335Z,12.37
2018-04-08T01:29:23.857Z,13.50
2018-04-08T01:31:52.156Z,10.77
2018-04-08T01:34:19.743Z,13.63
2018-04-08T01:36:47.259Z,11.13
2018-04-08T01:39:15.561Z,20.60
2018-04-08T01:41:43.123Z,13.07
2018-04-08T01:44:10.645Z,14.33
2018-04-08T01:46:38.938Z,20.70
2018-04-08T01:49:06.513Z,10.63
2018-04-08T01:51:34.023Z,14.87
2018-04-08T01:54:02.317Z,13.20
2018-04-08T01:56:30.720Z,15.50
2018-04-08T01:58:58.289Z,12.03
2018-04-08T02:01:25.805Z,11.93
2018-04-08T02:03:54.110Z,13.60
2018-04-08T02:06:21.671Z,17.63
2018-04-08T02:08:49.253Z,22.00
2018-04-08T02:11:16.810Z,10.43
2018-04-08T02:13:44.355Z,10.40
2018-04-08T02:16:11.871Z,17.60
2018-04-08T02:18:40.180Z,12.77
2018-04-08T02:21:07.687Z,18.23
2018-04-08T02:23:36.732Z,18.90
2018-04-08T02:26:04.296Z,14.83
2018-04-08T02:28:31.817Z,15.57
2018-04-08T02:31:00.112Z,16.27
2018-04-08T02:33:27.694Z,19.37
2018-04-08T02:35:55.234Z,14.10
2018-04-08T02:38:22.805Z,15.13
2018-04-08T02:40:50.374Z,13.77
2018-04-08T02:43:17.884Z,17.07
2018-04-08T02:45:46.173Z,12.37
2018-04-08T02:48:13.716Z,12.83
2018-04-08T02:50:42.010Z,19.40
2018-04-08T02:53:09.521Z,15.20
2018-04-08T02:55:37.078Z,16.50
2018-04-08T02:58:04.591Z,13.87
2018-04-08T03:00:32.111Z,15.53
2018-04-08T03:02:59.725Z,11.67
2018-04-08T03:05:27.239Z,16.40
2018-04-08T03:07:55.550Z,17.27
2018-04-08T03:10:23.091Z,20.13
2018-04-08T03:12:50.611Z,18.27
2018-04-08T03:15:18.122Z,16.00
2018-04-08T03:17:45.683Z,13.10
2018-04-08T03:20:13.204Z,20.50
2018-04-08T03:22:41.481Z,16.30
2018-04-08T03:25:09.813Z,18.73
2018-04-08T03:27:37.324Z,16.03
2018-04-08T03:30:05.625Z,22.63
2018-04-08T03:32:33.238Z,21.70
2018-04-08T03:35:00.774Z,18.20
2018-04-08T03:37:29.045Z,22.17
2018-04-08T03:39:56.613Z,17.70
2018-04-08T03:42:24.139Z,16.87
2018-04-08T03:44:51.655Z,15.57
2018-04-08T03:47:19.983Z,19.47
2018-04-08T03:49:47.503Z,19.10
2018-04-08T03:52:15.782Z,15.40
2018-04-08T03:54:44.215Z,18.43
2018-04-08T03:57:11.734Z,19.87
2018-04-08T03:59:39.266Z,17.27
2018-04-08T04:02:07.904Z,20.40
2018-04-08T04:04:35.460Z,25.40
2018-04-08T04:07:02.984Z,24.90
2018-04-08T04:09:30.536Z,29.40
2018-04-08T04:11:58.830Z,21.70
2018-04-08T04:14:26.370Z,25.10
2018-04-08T04:16:54.703Z,25.17
2018-04-08T04:19:34.326Z,19.93
2018-04-08T04:22:13.902Z,23.10
2018-04-08T04:27:47.666Z,23.50
2018-04-08T04:30:15.186Z,20.93
2018-04-08T04:32:42.703Z,23.77
2018-04-08T04:35:10.260Z,19.83
2018-04-08T04:37:37.790Z,21.70
2018-04-08T04:40:05.309Z,23.73
2018-04-08T04:42:32.940Z,23.53
2018-04-08T04:45:00.460Z,22.60
2018-04-08T04:47:28.762Z,23.33
2018-04-08T04:49:56.952Z,23.23
2018-04-08T04:52:24.501Z,23.20
2018-04-08T04:54:52.019Z,23.90
2018-04-08T04:57:20.348Z,21.00
2018-04-08T04:59:47.894Z,25.87
2018-04-08T05:02:15.445Z,21.33
2018-04-08T05:04:43.010Z,19.90
2018-04-08T05:07:10.536Z,20.33
2018-04-08T05:09:38.820Z,25.77
2018-04-08T05:12:06.411Z,24.17
2018-04-08T05:14:33.941Z,23.80
2018-04-08T05:17:01.456Z,26.50
2018-04-08T05:19:29.774Z,26.53
2018-04-08T05:21:57.320Z,20.70
2018-04-08T05:24:25.946Z,20.53
2018-04-08T05:26:53.598Z,22.97
2018-04-08T05:29:21.163Z,20.47
2018-04-08T05:31:48.689Z,17.77
2018-04-08T05:34:16.275Z,19.07
2018-04-08T05:36:43.810Z,19.93
2018-04-08T05:39:11.391Z,19.23
2018-04-08T05:41:38.947Z,20.93
2018-04-08T05:44:06.464Z,19.97
2018-04-08T05:46:34.764Z,30.17
2018-04-08T05:49:02.311Z,24.13
2018-04-08T05:51:30.611Z,22.93
2018-04-08T05:53:58.127Z,22.40
2018-04-08T05:56:26.455Z,17.90
2018-04-08T05:58:54.011Z,19.53
2018-04-08T06:01:21.539Z,19.77
2018-04-08T06:03:49.178Z,20.00
2018-04-08T06:06:16.657Z,19.67
2018-04-08T06:08:44.189Z,28.57
2018-04-08T06:11:11.797Z,20.73
2018-04-08T06:13:39.359Z,22.50
2018-04-08T06:16:07.047Z,20.50
2018-04-08T06:18:34.599Z,25.80
2018-04-08T06:21:02.126Z,21.93
2018-04-08T06:23:29.650Z,17.00
2018-04-08T06:25:57.975Z,21.50
2018-04-08T06:28:25.545Z,18.43
2018-04-08T06:30:53.081Z,22.03
2018-04-08T06:33:20.742Z,19.77
2018-04-08T06:35:48.280Z,23.50
2018-04-08T06:38:15.802Z,20.50
2018-04-08T06:40:43.370Z,23.03
2018-04-08T06:43:10.903Z,21.80
2018-04-08T06:45:38.447Z,22.97
2018-04-08T06:48:06.002Z,22.60
2018-04-08T06:50:33.542Z,28.93
2018-04-08T06:53:01.196Z,23.90
2018-04-08T06:55:28.710Z,21.37
2018-04-08T06:57:56.232Z,22.13
2018-04-08T07:00:23.771Z,26.90
2018-04-08T07:02:51.345Z,22.63
2018-04-08T07:05:19.866Z,23.57
2018-04-08T07:07:47.371Z,24.43
2018-04-08T07:10:14.953Z,24.67
2018-04-08T07:12:42.466Z,20.53
2018-04-08T07:15:10.759Z,23.50
2018-04-08T07:17:38.317Z,21.20
2018-04-08T07:20:05.849Z,21.17
2018-04-08T07:22:34.155Z,21.80
2018-04-08T07:25:01.717Z,24.30
2018-04-08T07:27:29.230Z,20.80
2018-04-08T07:29:56.742Z,24.17
2018-04-08T07:32:24.296Z,19.30
2018-04-08T07:34:51.865Z,18.53
2018-04-08T07:37:19.380Z,19.30
2018-04-08T07:39:47.813Z,22.60
2018-04-08T07:42:15.353Z,18.33
2018-04-08T07:44:42.886Z,19.23
2018-04-08T07:47:11.215Z,18.80
2018-04-08T07:49:38.746Z,20.87
2018-04-08T07:52:06.293Z,20.13
2018-04-08T07:54:33.890Z,23.20
2018-04-08T07:57:01.456Z,23.83
2018-04-08T07:59:29.003Z,22.50
2018-04-08T08:01:56.569Z,21.70
2018-04-08T08:04:24.119Z,20.00
2018-04-08T08:06:51.681Z,19.13
2018-04-08T08:09:19.242Z,21.33
2018-04-08T08:11:46.790Z,19.53
2018-04-08T08:14:14.312Z,24.50
2018-04-08T08:16:42.664Z,20.90
2018-04-08T08:19:10.289Z,19.23
2018-04-08T08:21:37.803Z,24.30
2018-04-08T08:24:06.225Z,22.13
2018-04-08T08:26:33.778Z,20.00
2018-04-08T08:29:01.311Z,23.00
2018-04-08T08:31:28.879Z,21.77
2018-04-08T08:33:56.456Z,22.07
2018-04-08T08:36:24.003Z,22.17
2018-04-08T08:38:51.574Z,21.10
2018-04-08T08:41:19.117Z,21.30
2018-04-08T08:43:47.405Z,21.97
2018-04-08T08:46:14.964Z,20.60
2018-04-08T08:48:42.515Z,21.73
2018-04-08T08:51:10.028Z,21.97
2018-04-08T08:53:38.446Z,30.20
2018-04-08T08:56:06.016Z,26.53
2018-04-08T08:58:33.668Z,25.10
2018-04-08T09:01:01.446Z,29.03
2018-04-08T09:03:28.975Z,22.47
2018-04-08T09:05:56.549Z,27.20
2018-04-08T09:08:24.100Z,31.23
2018-04-08T09:10:51.666Z,23.20
2018-04-08T09:13:19.231Z,32.03
2018-04-08T09:15:46.796Z,23.03
2018-04-08T09:18:14.358Z,29.30
2018-04-08T09:20:45.892Z,28.80
2018-04-08T09:26:21.088Z,24.80
2018-04-08T09:28:48.605Z,28.07
2018-04-08T09:31:16.171Z,20.60
2018-04-08T09:33:43.746Z,25.30
2018-04-08T09:36:11.265Z,25.10
2018-04-08T09:38:38.873Z,23.03
2018-04-08T09:41:06.614Z,20.63
2018-04-08T09:43:34.260Z,28.20
2018-04-08T09:46:01.798Z,31.33
2018-04-08T09:48:30.218Z,23.53
2018-04-08T09:50:57.796Z,24.97
2018-04-08T09:53:25.328Z,26.50
2018-04-08T09:55:52.879Z,30.00
2018-04-08T09:58:20.963Z,32.40
2018-04-08T10:03:47.359Z,23.73
2018-04-08T10:06:15.679Z,27.40
2018-04-08T10:08:43.201Z,21.73
2018-04-08T10:11:11.616Z,25.90
2018-04-08T10:13:39.442Z,26.90
2018-04-08T10:16:07.736Z,24.97
2018-04-08T10:18:35.274Z,25.87
2018-04-08T10:21:02.857Z,28.37
2018-04-08T10:23:30.380Z,21.90
2018-04-08T10:25:57.992Z,25.47
2018-04-08T10:28:25.544Z,25.27
2018-04-08T10:30:53.120Z,24.93
2018-04-08T10:33:20.681Z,22.40
2018-04-08T10:35:48.233Z,26.60
2018-04-08T10:38:16.258Z,21.27
2018-04-08T10:40:44.777Z,24.10
2018-04-08T10:43:12.451Z,21.77
2018-04-08T10:45:40.003Z,24.50
2018-04-08T10:48:07.521Z,19.57
2018-04-08T10:50:35.943Z,23.63
2018-04-08T10:53:03.519Z,16.80
2018-04-08T10:55:31.058Z,19.77
2018-04-08T10:57:58.628Z,19.17
2018-04-08T11:00:26.186Z,18.03
2018-04-08T11:02:53.706Z,23.60
2018-04-08T11:05:21.278Z,22.50
2018-04-08T11:07:48.801Z,22.53
2018-04-08T11:10:17.139Z,21.30
2018-04-08T11:12:44.679Z,25.10
2018-04-08T11:15:12.220Z,19.40
2018-04-08T11:17:39.739Z,22.20
2018-04-08T11:20:07.292Z,25.27
2018-04-08T11:22:34.877Z,26.83
2018-04-08T11:25:02.356Z,31.77
2018-04-08T11:27:29.924Z,25.27
2018-04-08T11:29:57.448Z,20.93
2018-04-08T11:32:25.750Z,24.33
2018-04-08T11:34:53.302Z,27.60
2018-04-08T11:37:20.824Z,23.20
2018-04-08T11:39:48.347Z,22.80
2018-04-08T11:42:16.467Z,22.07
2018-04-08T11:44:44.778Z,26.50
2018-04-08T11:47:12.314Z,30.40
2018-04-08T11:49:40.653Z,26.07
2018-04-08T11:52:08.279Z,18.30
2018-04-08T11:54:35.853Z,21.20
2018-04-08T11:57:03.416Z,21.63
2018-04-08T11:59:30.929Z,16.10
2018-04-08T12:01:59.212Z,23.13
2018-04-08T12:04:26.781Z,22.23
2018-04-08T12:06:54.355Z,19.67
2018-04-08T12:09:21.890Z,26.47
2018-04-08T12:11:49.460Z,26.93
2018-04-08T12:14:17.012Z,24.33
2018-04-08T12:16:44.548Z,18.30
2018-04-08T12:19:12.874Z,19.43
2018-04-08T12:21:40.388Z,20.10
2018-04-08T12:24:08.687Z,19.73
2018-04-08T12:26:37.150Z,20.33
2018-04-08T12:29:04.687Z,17.40
2018-04-08T12:31:32.232Z,20.13
2018-04-08T12:33:59.803Z,17.00
2018-04-08T12:36:28.107Z,30.53
2018-04-08T12:38:55.642Z,22.80
2018-04-08T12:41:24.073Z,19.90
2018-04-08T12:43:51.617Z,19.23
2018-04-08T12:46:19.177Z,20.33
2018-04-08T12:48:46.850Z,20.13
2018-04-08T12:51:14.816Z,24.80
2018-04-08T12:53:42.336Z,17.83
2018-04-08T12:56:10.749Z,16.57
2018-04-08T12:58:38.296Z,20.10
2018-04-08T13:01:05.807Z,16.17
2018-04-08T13:03:33.460Z,14.97
2018-04-08T13:06:00.983Z,16.47
2018-04-08T13:08:29.100Z,18.73
2018-04-08T13:10:56.645Z,20.50
2018-04-08T13:13:24.221Z,13.43
2018-04-08T13:15:52.519Z,17.73
2018-04-08T13:18:20.868Z,24.47
2018-04-08T13:20:48.396Z,18.17
2018-04-08T13:23:15.935Z,15.63
2018-04-08T13:25:43.507Z,15.33
2018-04-08T13:28:11.052Z,18.77
2018-04-08T13:30:38.575Z,17.77
2018-04-08T13:33:07.100Z,20.37
2018-04-08T13:35:34.632Z,21.03
2018-04-08T13:38:02.168Z,26.40
2018-04-08T13:40:30.482Z,24.27
2018-04-08T13:42:58.032Z,11.73
2018-04-08T13:45:25.553Z,16.40
2018-04-08T13:47:53.872Z,15.87
2018-04-08T13:50:21.414Z,17.37
2018-04-08T13:52:48.940Z,22.87
2018-04-08T13:55:16.517Z,18.43
2018-04-08T13:57:44.798Z,10.80
2018-04-08T14:00:13.205Z,13.20
2018-04-08T14:02:40.823Z,21.03
2018-04-08T14:05:08.437Z,16.63
2018-04-08T14:07:35.969Z,22.63
2018-04-08T14:10:04.163Z,18.03
2018-04-08T14:12:31.709Z,14.93
2018-04-08T14:14:59.296Z,24.03
2018-04-08T14:17:26.855Z,14.40
2018-04-08T14:19:54.402Z,10.13
2018-04-08T14:22:21.937Z,24.30
2018-04-08T14:24:49.612Z,13.30
2018-04-08T14:27:17.149Z,13.70
2018-04-08T14:29:44.663Z,16.23
2018-04-08T14:32:12.299Z,13.37
2018-04-08T14:34:39.862Z,17.03
2018-04-08T14:37:07.511Z,30.50
2018-04-08T14:39:35.173Z,17.40
2018-04-08T14:42:02.740Z,17.43
2018-04-08T14:44:30.273Z,16.13
2018-04-08T14:46:57.830Z,20.47
2018-04-08T14:49:25.356Z,14.57
2018-04-08T14:51:52.879Z,13.17
2018-04-08T14:54:20.452Z,12.73
2018-04-08T14:56:47.997Z,11.93
2018-04-08T14:59:15.512Z,13.90
2018-04-08T15:01:46.664Z,13.40
2018-04-08T15:04:10.647Z,15.37
2018-04-08T15:06:38.638Z,9.53
2018-04-08T15:09:06.209Z,11.30
2018-04-08T15:11:34.527Z,9.83
2018-04-08T15:14:02.821Z,14.50
2018-04-08T15:16:30.391Z,13.50
2018-04-08T15:18:57.914Z,15.00
2018-04-08T15:21:26.215Z,17.10
2018-04-08T15:23:53.772Z,16.93
2018-04-08T15:26:21.302Z,17.70
2018-04-08T15:28:49.622Z,19.77
2018-04-08T15:31:17.189Z,29.27
2018-04-08T15:33:44.754Z,21.23
2018-04-08T15:36:12.299Z,17.10
2018-04-08T15:38:39.870Z,15.30
2018-04-08T15:41:07.412Z,27.47
2018-04-08T15:43:34.953Z,23.10
2018-04-08T15:46:02.508Z,25.43
2018-04-08T15:48:30.032Z,23.13
2018-04-08T15:50:58.443Z,28.20
2018-04-08T15:53:25.995Z,9.83
2018-04-08T15:55:54.274Z,21.33
2018-04-08T15:58:22.564Z,19.17
2018-04-08T16:00:50.123Z,13.13
2018-04-08T16:03:17.649Z,18.90
2018-04-08T16:05:45.949Z,15.63
2018-04-08T16:08:13.502Z,13.70
2018-04-08T16:10:41.823Z,11.37
2018-04-08T16:13:09.340Z,14.23
2018-04-08T16:15:36.966Z,19.63
2018-04-08T16:18:04.486Z,19.83
2018-04-08T16:20:32.018Z,14.13
2018-04-08T16:22:59.571Z,24.13
2018-04-08T16:25:27.874Z,25.73
2018-04-08T16:27:55.404Z,15.47
2018-04-08T16:30:23.725Z,16.33
2018-04-08T16:32:51.260Z,17.50
2018-04-08T16:35:18.790Z,13.93
2018-04-08T16:37:47.108Z,18.60
2018-04-08T16:40:14.633Z,21.03
2018-04-08T16:42:42.223Z,16.53
2018-04-08T16:45:09.883Z,19.63
2018-04-08T16:47:37.447Z,19.97
2018-04-08T16:50:04.991Z,20.83
2018-04-08T16:52:32.563Z,15.40
2018-04-08T16:55:00.129Z,15.77
2018-04-08T16:57:28.701Z,12.60
2018-04-08T16:59:56.256Z,11.23
2018-04-08T17:02:23.789Z,19.93
2018-04-08T17:04:52.088Z,18.47
2018-04-08T17:07:19.662Z,12.33
2018-04-08T17:09:47.179Z,11.83
2018-04-08T17:12:15.500Z,17.30
2018-04-08T17:14:43.153Z,10.50
2018-04-08T17:17:10.684Z,13.53
2018-04-08T17:19:38.215Z,20.30
2018-04-08T17:22:06.563Z,15.00
2018-04-08T17:24:34.091Z,17.93
2018-04-08T17:27:01.619Z,20.43
2018-04-08T17:29:29.945Z,15.90
2018-04-08T17:31:57.466Z,15.33
2018-04-08T17:34:24.998Z,15.47
2018-04-08T17:36:53.310Z,18.57
2018-04-08T17:39:20.896Z,18.30
2018-04-08T17:41:48.420Z,22.77
2018-04-08T17:44:15.988Z,18.20
2018-04-08T17:46:43.520Z,17.80
2018-04-08T17:49:11.855Z,14.77
2018-04-08T17:51:39.491Z,23.07
2018-04-08T17:54:07.012Z,14.03
2018-04-08T17:56:35.929Z,18.33
2018-04-08T17:59:03.500Z,15.47
2018-04-08T18:01:31.028Z,12.30
2018-04-08T18:03:59.336Z,13.97
2018-04-08T18:06:27.033Z,13.63
2018-04-08T18:08:54.560Z,16.10
2018-04-08T18:11:22.105Z,17.27
2018-04-08T18:13:49.682Z,22.50
2018-04-08T18:16:17.238Z,13.53
2018-04-08T18:18:44.804Z,13.77
2018-04-08T18:21:12.362Z,14.33
2018-04-08T18:23:39.887Z,17.43
2018-04-08T18:26:07.399Z,17.17
2018-04-08T18:28:35.214Z,20.73
2018-04-08T18:31:02.746Z,21.27
2018-04-08T18:33:31.039Z,19.77
2018-04-08T18:35:58.619Z,20.07
2018-04-08T18:38:26.165Z,14.33
2018-04-08T18:40:53.687Z,22.63
2018-04-08T18:43:21.294Z,24.93
2018-04-08T18:45:48.818Z,20.03
2018-04-08T18:48:17.376Z,23.67
2018-04-08T18:50:44.960Z,26.73
2018-04-08T18:53:13.271Z,27.17
2018-04-08T18:55:40.782Z,14.50
2018-04-08T18:58:08.364Z,14.17
2018-04-08T19:00:36.623Z,20.60
2018-04-08T19:03:04.149Z,22.70
2018-04-08T19:05:31.718Z,30.63
2018-04-08T19:07:59.261Z,18.40
2018-04-08T19:10:26.797Z,30.47
2018-04-08T19:12:54.363Z,22.30
2018-04-08T19:15:22.682Z,23.57
2018-04-08T19:17:55.872Z,36.40
2018-04-08T19:20:23.398Z,20.80
2018-04-08T19:22:50.969Z,22.97
2018-04-08T19:25:18.520Z,26.30
2018-04-08T19:27:46.034Z,22.00
2018-04-08T19:30:19.941Z,29.63
2018-04-08T19:32:48.214Z,26.33
2018-04-08T19:35:17.557Z,25.77
2018-04-08T19:37:45.123Z,28.10
2018-04-08T19:40:12.682Z,21.97
2018-04-08T19:42:40.237Z,25.00
2018-04-08T19:45:07.980Z,22.50
2018-04-08T19:47:35.511Z,30.13
2018-04-08T19:50:03.814Z,27.27
2018-04-08T19:52:31.367Z,26.93
2018-04-08T19:54:58.945Z,30.57
2018-04-08T19:57:26.469Z,26.90
2018-04-08T19:59:54.061Z,23.30
2018-04-08T20:02:21.627Z,25.10
2018-04-08T20:04:49.153Z,22.60
2018-04-08T20:07:16.723Z,30.33
2018-04-08T20:09:44.325Z,20.93
2018-04-08T20:12:11.874Z,28.97
2018-04-08T20:14:39.437Z,22.63
2018-04-08T20:17:06.966Z,32.47
2018-04-08T20:19:34.499Z,32.77
2018-04-08T20:22:02.300Z,30.83
2018-04-08T20:24:29.861Z,34.00
2018-04-08T20:26:57.376Z,26.33
2018-04-08T20:29:24.934Z,26.87
2018-04-08T20:31:52.527Z,29.70
2018-04-08T20:34:20.080Z,33.70
2018-04-08T20:36:47.627Z,22.80
2018-04-08T20:39:15.196Z,25.93
2018-04-08T20:41:42.755Z,28.40
2018-04-08T20:44:10.318Z,25.27
2018-04-08T20:46:38.038Z,28.50
2018-04-08T20:49:06.407Z,21.40
2018-04-08T20:51:33.920Z,34.37
2018-04-08T20:54:01.464Z,32.43
2018-04-08T20:56:28.993Z,24.40
2018-04-08T20:58:57.413Z,29.70
2018-04-08T21:01:25.063Z,31.20
2018-04-08T21:03:52.584Z,23.83
2018-04-08T21:06:20.911Z,38.17
2018-04-08T21:08:48.430Z,27.10
2018-04-08T21:11:16.715Z,27.13
2018-04-08T21:13:44.278Z,37.83
2018-04-08T21:16:11.864Z,36.40
2018-04-08T21:18:39.431Z,35.13
2018-04-08T21:21:07.077Z,45.70
2018-04-08T21:23:34.593Z,48.27
2018-04-08T21:26:02.886Z,48.53
2018-04-08T21:28:30.440Z,40.40
2018-04-08T21:30:59.931Z,43.07
2018-04-08T21:33:28.215Z,54.40
2018-04-08T21:35:56.539Z,67.03
2018-04-08T21:38:24.052Z,51.93
2018-04-08T21:40:52.357Z,56.43
2018-04-08T21:43:19.914Z,51.47
2018-04-08T21:45:47.450Z,53.60
2018-04-08T21:48:14.967Z,63.67
2018-04-08T21:50:42.555Z,63.97
2018-04-08T21:53:10.838Z,61.47
2018-04-08T21:55:38.376Z,64.13
2018-04-08T21:58:07.112Z,70.40
2018-04-08T22:00:34.647Z,63.10
2018-04-08T22:03:02.172Z,74.47
2018-04-08T22:05:29.731Z,73.77
2018-04-08T22:07:58.051Z,69.27
2018-04-08T22:10:25.584Z,86.87
2018-04-08T22:12:53.930Z,82.93
2018-04-08T22:15:22.232Z,75.13
2018-04-08T22:17:50.548Z,88.43
2018-04-08T22:20:18.118Z,87.40
2018-04-08T22:22:45.652Z,80.33
2018-04-08T22:25:13.168Z,86.27
2018-04-08T22:27:40.792Z,88.50
2018-04-08T22:30:08.352Z,86.20
2018-04-08T22:32:35.866Z,91.43
2018-04-08T22:35:03.465Z,84.60
2018-04-08T22:37:31.029Z,92.27
2018-04-08T22:39:58.576Z,102.77
2018-04-08T22:42:26.231Z,87.47
2018-04-08T22:44:53.791Z,88.40
2018-04-08T22:47:21.411Z,97.03
2018-04-08T22:49:49.730Z,85.13
2018-04-08T22:52:17.250Z,95.60
2018-04-08T22:54:45.534Z,90.00
2018-04-08T22:57:13.864Z,88.53
2018-04-08T22:59:41.498Z,99.53
2018-04-08T23:02:09.036Z,91.13
2018-04-08T23:04:37.707Z,80.60
2018-04-08T23:07:05.988Z,91.20
2018-04-08T23:09:34.285Z,96.47
2018-04-08T23:12:01.867Z,89.67
2018-04-08T23:14:29.400Z,104.60
2018-04-08T23:16:56.938Z,88.10
2018-04-08T23:19:25.279Z,100.80
2018-04-08T23:21:53.064Z,98.13
2018-04-08T23:24:20.595Z,95.47
2018-04-08T23:26:48.158Z,102.27
2018-04-08T23:29:15.684Z,107.20
2018-04-08T23:31:43.210Z,107.60
2018-04-08T23:34:11.534Z,107.83
2018-04-08T23:36:39.049Z,98.97
2018-04-08T23:39:07.329Z,95.37
2018-04-08T23:41:34.890Z,100.87
2018-04-08T23:44:03.179Z,99.53
2018-04-08T23:46:30.708Z,105.87
2018-04-08T23:48:59.039Z,107.03
2018-04-08T23:51:26.572Z,113.47
2018-04-08T23:53:54.094Z,102.10
2018-04-08T23:56:21.698Z,112.90
2018-04-08T23:58:49.231Z,117.73
